createdAt,value
2023-01-19T00:00:53.995Z,9.418301
2023-01-19T00:01:53.958Z,9.418243
2023-01-19T00:02:54.049Z,9.418338
2023-01-19T00:03:53.985Z,9.418348
2023-01-19T00:04:53.951Z,9.418372
2023-01-19T00:05:54.009Z,9.418336
2023-01-19T00:06:53.939Z,9.418337
2023-01-19T00:07:53.938Z,9.418238
2023-01-19T00:08:53.927Z,9.418314
2023-01-19T00:09:53.917Z,9.418305
2023-01-19T00:10:53.927Z,9.418367
2023-01-19T00:11:53.918Z,9.418496
2023-01-19T00:12:53.909Z,9.418421
2023-01-19T00:13:53.892Z,9.418242
2023-01-19T00:14:53.890Z,9.418220
2023-01-19T00:15:53.924Z,9.418167
2023-01-19T00:16:53.876Z,9.418199
2023-01-19T00:17:53.868Z,9.418281
2023-01-19T00:18:53.878Z,9.418277
2023-01-19T00:19:53.862Z,9.418297
2023-01-19T00:20:53.872Z,9.418326
2023-01-19T00:21:53.850Z,9.418319
2023-01-19T00:22:53.849Z,9.418321
2023-01-19T00:23:53.834Z,9.418258
2023-01-19T00:24:53.831Z,9.418200
2023-01-19T00:25:53.841Z,9.418307
2023-01-19T00:26:53.818Z,9.418284
2023-01-19T00:27:53.806Z,9.418283
2023-01-19T00:28:53.799Z,9.418234
2023-01-19T00:29:53.788Z,9.418248
2023-01-19T00:30:53.795Z,9.418246
2023-01-19T00:31:53.807Z,9.418295
2023-01-19T00:32:53.773Z,9.418288
2023-01-19T00:33:53.777Z,9.418296
2023-01-19T00:34:53.759Z,9.418289
2023-01-19T00:35:53.751Z,9.418268
2023-01-19T00:36:53.758Z,9.418269
2023-01-19T00:37:53.733Z,9.418315
2023-01-19T00:38:53.727Z,9.418268
2023-01-19T00:39:53.725Z,9.418246
2023-01-19T00:40:53.724Z,9.418221
2023-01-19T00:41:53.728Z,9.418214
2023-01-19T00:42:53.714Z,9.418258
2023-01-19T00:43:53.698Z,9.418242
2023-01-19T00:44:53.691Z,9.418303
2023-01-19T00:45:53.745Z,9.418338
2023-01-19T00:46:53.707Z,9.418326
2023-01-19T00:47:53.673Z,9.418269
2023-01-19T00:48:53.657Z,9.418213
2023-01-19T00:49:53.666Z,9.418243
2023-01-19T00:50:53.654Z,9.418330
2023-01-19T00:51:53.660Z,9.418348
2023-01-19T00:52:53.653Z,9.418384
2023-01-19T00:53:53.613Z,9.418423
2023-01-19T00:54:53.631Z,9.418273
2023-01-19T00:55:53.614Z,9.418301
2023-01-19T00:56:53.606Z,9.418395
2023-01-19T00:57:53.619Z,9.418258
2023-01-19T00:58:53.597Z,9.418244
2023-01-19T00:59:53.578Z,9.418278
2023-01-19T01:00:53.697Z,9.418049
2023-01-19T01:01:53.900Z,9.418201
2023-01-19T01:02:53.712Z,9.418207
2023-01-19T01:03:53.566Z,9.418235
2023-01-19T01:04:53.562Z,9.418273
2023-01-19T01:05:53.559Z,9.418252
2023-01-19T01:06:53.533Z,9.418224
2023-01-19T01:07:53.559Z,9.418233
2023-01-19T01:08:53.534Z,9.418284
2023-01-19T01:09:53.542Z,9.418348
2023-01-19T01:10:53.522Z,9.418261
2023-01-19T01:11:53.509Z,9.418281
2023-01-19T01:12:57.313Z,9.418256
2023-01-19T01:13:53.510Z,9.418155
2023-01-19T01:14:53.495Z,9.418184
2023-01-19T01:15:53.519Z,9.418173
2023-01-19T01:16:53.584Z,9.418136
2023-01-19T01:17:53.477Z,9.418190
2023-01-19T01:18:53.489Z,9.418222
2023-01-19T01:19:53.461Z,9.418276
2023-01-19T01:20:55.331Z,9.418218
2023-01-19T01:21:53.437Z,9.418178
2023-01-19T01:22:53.445Z,9.418234
2023-01-19T01:23:53.445Z,9.418275
2023-01-19T01:24:53.420Z,9.418249
2023-01-19T01:25:53.434Z,9.418228
2023-01-19T01:26:53.410Z,9.418260
2023-01-19T01:27:53.403Z,9.418221
2023-01-19T01:28:53.409Z,9.418252
2023-01-19T01:29:53.396Z,9.418252
2023-01-19T01:30:53.380Z,9.418180
2023-01-19T01:31:53.423Z,9.418137
2023-01-19T01:32:53.368Z,9.418069
2023-01-19T01:33:53.382Z,9.418094
2023-01-19T01:34:53.351Z,9.418071
2023-01-19T01:35:53.333Z,9.418212
2023-01-19T01:36:53.341Z,9.418213
2023-01-19T01:37:53.343Z,9.418150
2023-01-19T01:38:53.332Z,9.418254
2023-01-19T01:39:53.328Z,9.418257
2023-01-19T01:40:53.334Z,9.418365
2023-01-19T01:41:54.016Z,9.418374
2023-01-19T01:42:53.297Z,9.418304
2023-01-19T01:43:53.308Z,9.418248
2023-01-19T01:44:53.291Z,9.418254
2023-01-19T01:45:53.374Z,9.418278
2023-01-19T01:46:53.276Z,9.418306
2023-01-19T01:47:53.266Z,9.418344
2023-01-19T01:48:53.282Z,9.418374
2023-01-19T01:49:53.289Z,9.418278
2023-01-19T01:50:53.251Z,9.418249
2023-01-19T01:51:53.256Z,9.418209
2023-01-19T01:53:03.853Z,9.418212
2023-01-19T01:53:54.258Z,9.418242
2023-01-19T01:54:53.239Z,9.418157
2023-01-19T01:55:53.245Z,9.418189
2023-01-19T01:56:53.218Z,9.418238
2023-01-19T01:57:53.205Z,9.418325
2023-01-19T01:58:53.194Z,9.418397
2023-01-19T01:59:53.192Z,9.418467
2023-01-19T02:00:54.399Z,9.418477
2023-01-19T02:01:53.240Z,9.418477
2023-01-19T02:02:53.223Z,9.418393
2023-01-19T02:03:53.165Z,9.418365
2023-01-19T02:04:53.170Z,9.418297
2023-01-19T02:05:53.167Z,9.418352
2023-01-19T02:06:53.169Z,9.418255
2023-01-19T02:07:53.144Z,9.418280
2023-01-19T02:08:53.137Z,9.418359
2023-01-19T02:09:53.132Z,9.418331
2023-01-19T02:10:53.125Z,9.418317
2023-01-19T02:11:53.116Z,9.418234
2023-01-19T02:12:53.113Z,9.418417
2023-01-19T02:13:53.125Z,9.418331
2023-01-19T02:14:53.094Z,9.418307
2023-01-19T02:15:53.085Z,9.418414
2023-01-19T02:16:53.119Z,9.418311
2023-01-19T02:17:53.076Z,9.418292
2023-01-19T02:18:53.069Z,9.418468
2023-01-19T02:19:53.051Z,9.418495
2023-01-19T02:20:53.048Z,9.418402
2023-01-19T02:21:53.046Z,9.418380
2023-01-19T02:22:53.045Z,9.418330
2023-01-19T02:23:53.040Z,9.418335
2023-01-19T02:24:53.020Z,9.418230
2023-01-19T02:25:53.021Z,9.418361
2023-01-19T02:26:53.014Z,9.418259
2023-01-19T02:27:53.017Z,9.418286
2023-01-19T02:28:53.001Z,9.418206
2023-01-19T02:29:52.995Z,9.418283
2023-01-19T02:30:53.027Z,9.418172
2023-01-19T02:31:52.993Z,9.418233
2023-01-19T02:32:52.981Z,9.418217
2023-01-19T02:33:52.968Z,9.418247
2023-01-19T02:34:52.956Z,9.418202
2023-01-19T02:35:52.955Z,9.418247
2023-01-19T02:36:52.975Z,9.418190
2023-01-19T02:37:52.938Z,9.418129
2023-01-19T02:38:52.945Z,9.418290
2023-01-19T02:39:52.933Z,9.418219
2023-01-19T02:40:52.926Z,9.418356
2023-01-19T02:41:52.910Z,9.418325
2023-01-19T02:42:52.925Z,9.418251
2023-01-19T02:43:52.917Z,9.418307
2023-01-19T02:44:52.891Z,9.418215
2023-01-19T02:45:52.920Z,9.418136
2023-01-19T02:46:52.876Z,9.418279
2023-01-19T02:47:52.881Z,9.418195
2023-01-19T02:48:52.890Z,9.418279
2023-01-19T02:49:52.879Z,9.418468
2023-01-19T02:50:52.852Z,9.418529
2023-01-19T02:51:52.859Z,9.418368
2023-01-19T02:52:52.841Z,9.418349
2023-01-19T02:53:52.836Z,9.418384
2023-01-19T02:54:52.841Z,9.418238
2023-01-19T02:55:52.823Z,9.418150
2023-01-19T02:56:52.821Z,9.418275
2023-01-19T02:57:52.809Z,9.418365
2023-01-19T02:58:52.809Z,9.418386
2023-01-19T02:59:52.796Z,9.418295
2023-01-19T03:00:52.848Z,9.418183
2023-01-19T03:01:52.863Z,9.418278
2023-01-19T03:02:52.829Z,9.418350
2023-01-19T03:03:52.773Z,9.418256
2023-01-19T03:04:52.772Z,9.418323
2023-01-19T03:05:52.770Z,9.418256
2023-01-19T03:06:52.757Z,9.418348
2023-01-19T03:07:52.789Z,9.418372
2023-01-19T03:08:52.776Z,9.418472
2023-01-19T03:09:52.745Z,9.418503
2023-01-19T03:10:52.749Z,9.418451
2023-01-19T03:11:52.725Z,9.418329
2023-01-19T03:12:52.721Z,9.418153
2023-01-19T03:13:52.726Z,9.418117
2023-01-19T03:14:52.685Z,9.418147
2023-01-19T03:15:52.932Z,9.417891
2023-01-19T03:16:52.739Z,9.417959
2023-01-19T03:17:52.686Z,9.418258
2023-01-19T03:18:52.672Z,9.418142
2023-01-19T03:19:52.658Z,9.418352
2023-01-19T03:20:52.666Z,9.418015
2023-01-19T03:21:52.651Z,9.418243
2023-01-19T03:22:52.638Z,9.418125
2023-01-19T03:23:52.640Z,9.418295
2023-01-19T03:24:52.642Z,9.418014
2023-01-19T03:25:52.624Z,9.418207
2023-01-19T03:26:52.620Z,9.418359
2023-01-19T03:27:52.611Z,9.418089
2023-01-19T03:28:52.611Z,9.418386
2023-01-19T03:29:52.598Z,9.418381
2023-01-19T03:30:52.602Z,9.418386
2023-01-19T03:31:52.591Z,9.418401
2023-01-19T03:32:52.580Z,9.418226
2023-01-19T03:33:52.572Z,9.418346
2023-01-19T03:34:52.579Z,9.418385
2023-01-19T03:35:52.546Z,9.418250
2023-01-19T03:36:52.559Z,9.418193
2023-01-19T03:37:52.539Z,9.418225
2023-01-19T03:38:52.529Z,9.418225
2023-01-19T03:39:52.548Z,9.418301
2023-01-19T03:40:52.522Z,9.418233
2023-01-19T03:41:52.507Z,9.418309
2023-01-19T03:42:52.522Z,9.418357
2023-01-19T03:43:52.495Z,9.418301
2023-01-19T03:44:52.496Z,9.418271
2023-01-19T03:45:52.528Z,9.418262
2023-01-19T03:46:52.480Z,9.418083
2023-01-19T03:47:52.472Z,9.418000
2023-01-19T03:48:52.463Z,9.418260
2023-01-19T03:49:52.469Z,9.418200
2023-01-19T03:50:52.452Z,9.418394
2023-01-19T03:51:52.460Z,9.418293
2023-01-19T03:52:52.542Z,9.418221
2023-01-19T03:53:52.450Z,9.418377
2023-01-19T03:54:52.414Z,9.418298
2023-01-19T03:55:52.446Z,9.418510
2023-01-19T03:56:52.459Z,9.418532
2023-01-19T03:57:52.409Z,9.418267
2023-01-19T03:58:52.400Z,9.418233
2023-01-19T03:59:52.386Z,9.418137
2023-01-19T04:00:52.402Z,9.418257
2023-01-19T04:01:52.458Z,9.418280
2023-01-19T04:02:52.450Z,9.418189
2023-01-19T04:03:52.371Z,9.418262
2023-01-19T04:04:52.358Z,9.418282
2023-01-19T04:05:52.345Z,9.418224
2023-01-19T04:06:52.351Z,9.418342
2023-01-19T04:07:52.359Z,9.418290
2023-01-19T04:08:52.344Z,9.418263
2023-01-19T04:09:52.327Z,9.418299
2023-01-19T04:10:52.333Z,9.418227
2023-01-19T04:11:52.339Z,9.418145
2023-01-19T04:12:52.331Z,9.418324
2023-01-19T04:13:52.318Z,9.418254
2023-01-19T04:14:52.287Z,9.418242
2023-01-19T04:15:52.304Z,9.418231
2023-01-19T04:16:52.278Z,9.418301
2023-01-19T04:17:52.286Z,9.418287
2023-01-19T04:18:52.262Z,9.418309
2023-01-19T04:19:52.261Z,9.418314
2023-01-19T04:20:52.246Z,9.418403
2023-01-19T04:21:52.246Z,9.418373
2023-01-19T04:22:52.224Z,9.418323
2023-01-19T04:23:52.231Z,9.418342
2023-01-19T04:24:52.215Z,9.418298
2023-01-19T04:25:52.206Z,9.418337
2023-01-19T04:26:52.205Z,9.418198
2023-01-19T04:27:52.199Z,9.418147
2023-01-19T04:28:52.188Z,9.418311
2023-01-19T04:29:52.194Z,9.418199
2023-01-19T04:30:52.251Z,9.418262
2023-01-19T04:31:52.173Z,9.418366
2023-01-19T04:32:52.165Z,9.418399
2023-01-19T04:33:52.178Z,9.418383
2023-01-19T04:34:52.151Z,9.418371
2023-01-19T04:35:54.206Z,9.418327
2023-01-19T04:36:53.142Z,9.418461
2023-01-19T04:37:52.180Z,9.418427
2023-01-19T04:38:52.126Z,9.418491
2023-01-19T04:39:52.122Z,9.418491
2023-01-19T04:40:52.111Z,9.418550
2023-01-19T04:41:52.104Z,9.418427
2023-01-19T04:42:52.106Z,9.418304
2023-01-19T04:43:52.099Z,9.418427
2023-01-19T04:44:52.099Z,9.418470
2023-01-19T04:45:52.078Z,9.418467
2023-01-19T04:46:52.072Z,9.418521
2023-01-19T04:47:52.070Z,9.418490
2023-01-19T04:48:52.059Z,9.418426
2023-01-19T04:49:52.072Z,9.418384
2023-01-19T04:50:52.043Z,9.418339
2023-01-19T04:51:52.044Z,9.418376
2023-01-19T04:52:52.040Z,9.418402
2023-01-19T04:53:52.022Z,9.418489
2023-01-19T04:54:52.018Z,9.418462
2023-01-19T04:55:52.017Z,9.418396
2023-01-19T04:56:51.999Z,9.418445
2023-01-19T04:57:51.997Z,9.418386
2023-01-19T04:58:51.997Z,9.418315
2023-01-19T04:59:52.986Z,9.418324
2023-01-19T05:00:52.017Z,9.418316
2023-01-19T05:01:52.040Z,9.418344
2023-01-19T05:02:52.003Z,9.418385
2023-01-19T05:03:51.987Z,9.418432
2023-01-19T05:04:51.963Z,9.418336
2023-01-19T05:05:51.952Z,9.418376
2023-01-19T05:06:51.949Z,9.418372
2023-01-19T05:07:51.938Z,9.418347
2023-01-19T05:08:51.932Z,9.418396
2023-01-19T05:09:51.924Z,9.418385
2023-01-19T05:10:51.968Z,9.418385
2023-01-19T05:11:51.915Z,9.418388
2023-01-19T05:12:51.897Z,9.418391
2023-01-19T05:13:51.902Z,9.418370
2023-01-19T05:14:51.885Z,9.418350
2023-01-19T05:15:51.897Z,9.418337
2023-01-19T05:16:51.934Z,9.418380
2023-01-19T05:17:51.866Z,9.418344
2023-01-19T05:18:51.859Z,9.418369
2023-01-19T05:19:51.890Z,9.418335
2023-01-19T05:20:51.850Z,9.418364
2023-01-19T05:21:51.899Z,9.418315
2023-01-19T05:22:51.847Z,9.418251
2023-01-19T05:23:51.829Z,9.418265
2023-01-19T05:24:51.833Z,9.418269
2023-01-19T05:25:51.808Z,9.418331
2023-01-19T05:26:51.838Z,9.418355
2023-01-19T05:27:51.817Z,9.418226
2023-01-19T05:28:51.817Z,9.418161
2023-01-19T05:29:51.790Z,9.418277
2023-01-19T05:30:51.862Z,9.418245
2023-01-19T05:31:51.808Z,9.418299
2023-01-19T05:32:51.781Z,9.418378
2023-01-19T05:33:51.786Z,9.418415
2023-01-19T05:34:51.771Z,9.418344
2023-01-19T05:35:51.762Z,9.418279
2023-01-19T05:36:51.789Z,9.418212
2023-01-19T05:37:51.752Z,9.418235
2023-01-19T05:38:51.733Z,9.418206
2023-01-19T05:39:51.726Z,9.418106
2023-01-19T05:40:51.710Z,9.418132
2023-01-19T05:41:51.733Z,9.418184
2023-01-19T05:42:51.698Z,9.418144
2023-01-19T05:43:51.704Z,9.418128
2023-01-19T05:44:51.690Z,9.418159
2023-01-19T05:45:51.690Z,9.418118
2023-01-19T05:46:51.760Z,9.418129
2023-01-19T05:47:51.697Z,9.418262
2023-01-19T05:48:51.688Z,9.418238
2023-01-19T05:49:51.653Z,9.418233
2023-01-19T05:50:51.657Z,9.418246
2023-01-19T05:51:51.650Z,9.418173
2023-01-19T05:52:51.630Z,9.418071
2023-01-19T05:53:51.626Z,9.418331
2023-01-19T05:54:51.630Z,9.418371
2023-01-19T05:55:51.605Z,9.418187
2023-01-19T05:56:51.601Z,9.418029
2023-01-19T05:57:51.623Z,9.418167
2023-01-19T05:58:51.589Z,9.418496
2023-01-19T05:59:51.589Z,9.417912
2023-01-19T06:00:51.625Z,9.418249
2023-01-19T06:01:51.623Z,9.418051
2023-01-19T06:02:51.613Z,9.418117
2023-01-19T06:03:51.566Z,9.418019
2023-01-19T06:04:51.553Z,9.418154
2023-01-19T06:05:51.562Z,9.418193
2023-01-19T06:06:51.554Z,9.418150
2023-01-19T06:07:51.534Z,9.418305
2023-01-19T06:08:51.530Z,9.418215
2023-01-19T06:09:51.515Z,9.418251
2023-01-19T06:10:51.517Z,9.418397
2023-01-19T06:11:51.501Z,9.418361
2023-01-19T06:12:51.517Z,9.418276
2023-01-19T06:13:51.487Z,9.418126
2023-01-19T06:14:51.489Z,9.418155
2023-01-19T06:15:51.481Z,9.418210
2023-01-19T06:16:51.472Z,9.418161
2023-01-19T06:17:51.595Z,9.418119
2023-01-19T06:18:51.466Z,9.418210
2023-01-19T06:19:51.447Z,9.418288
2023-01-19T06:20:51.446Z,9.418183
2023-01-19T06:21:51.442Z,9.418209
2023-01-19T06:22:51.449Z,9.418249
2023-01-19T06:23:51.430Z,9.418303
2023-01-19T06:24:51.420Z,9.418356
2023-01-19T06:25:51.410Z,9.418404
2023-01-19T06:26:51.408Z,9.418333
2023-01-19T06:27:51.394Z,9.418325
2023-01-19T06:28:51.426Z,9.418296
2023-01-19T06:29:51.382Z,9.418396
2023-01-19T06:30:51.469Z,9.418383
2023-01-19T06:31:51.471Z,9.418331
2023-01-19T06:32:51.390Z,9.418283
2023-01-19T06:33:51.393Z,9.418376
2023-01-19T06:34:53.324Z,9.418353
2023-01-19T06:35:51.345Z,9.418370
2023-01-19T06:36:51.336Z,9.418309
2023-01-19T06:37:51.338Z,9.418268
2023-01-19T06:38:51.330Z,9.418224
2023-01-19T06:39:51.334Z,9.418359
2023-01-19T06:40:51.310Z,9.418519
2023-01-19T06:41:51.313Z,9.418347
2023-01-19T06:42:51.305Z,9.418440
2023-01-19T06:43:51.285Z,9.418310
2023-01-19T06:44:51.308Z,9.418457
2023-01-19T06:45:51.361Z,9.418365
2023-01-19T06:46:51.276Z,9.418352
2023-01-19T06:47:52.305Z,9.418368
2023-01-19T06:48:51.265Z,9.418280
2023-01-19T06:49:51.265Z,9.418323
2023-01-19T06:50:51.268Z,9.418364
2023-01-19T06:51:51.246Z,9.418383
2023-01-19T06:52:51.242Z,9.418381
2023-01-19T06:53:51.244Z,9.418347
2023-01-19T06:54:51.236Z,9.418303
2023-01-19T06:55:51.217Z,9.418299
2023-01-19T06:56:51.213Z,9.418287
2023-01-19T06:57:51.212Z,9.418318
2023-01-19T06:58:51.198Z,9.418307
2023-01-19T06:59:51.185Z,9.418235
2023-01-19T07:00:51.306Z,9.418411
2023-01-19T07:01:51.243Z,9.418328
2023-01-19T07:02:51.201Z,9.418269
2023-01-19T07:03:51.169Z,9.418238
2023-01-19T07:04:51.151Z,9.418264
2023-01-19T07:05:51.145Z,9.418351
2023-01-19T07:06:51.142Z,9.418324
2023-01-19T07:07:51.149Z,9.418375
2023-01-19T07:08:51.133Z,9.418322
2023-01-19T07:09:53.832Z,9.418315
2023-01-19T07:11:25.850Z,9.418351
2023-01-19T07:11:52.110Z,9.418302
2023-01-19T07:12:51.138Z,9.418292
2023-01-19T07:13:51.085Z,9.418311
2023-01-19T07:14:52.102Z,9.418308
2023-01-19T07:15:51.084Z,9.418308
2023-01-19T07:16:51.082Z,9.418318
2023-01-19T07:17:51.093Z,9.418262
2023-01-19T07:18:51.078Z,9.418281
2023-01-19T07:19:51.056Z,9.418267
2023-01-19T07:20:51.042Z,9.418271
2023-01-19T07:21:51.057Z,9.418217
2023-01-19T07:22:51.044Z,9.418233
2023-01-19T07:23:51.047Z,9.418240
2023-01-19T07:24:51.037Z,9.418242
2023-01-19T07:25:51.022Z,9.418264
2023-01-19T07:26:51.013Z,9.418242
2023-01-19T07:27:51.005Z,9.418242
2023-01-19T07:28:50.990Z,9.418258
2023-01-19T07:29:51.997Z,9.418296
2023-01-19T07:30:51.064Z,9.418266
2023-01-19T07:31:51.053Z,9.418217
2023-01-19T07:32:50.961Z,9.418255
2023-01-19T07:33:50.960Z,9.418270
2023-01-19T07:34:50.966Z,9.418301
2023-01-19T07:35:50.952Z,9.418216
2023-01-19T07:36:50.941Z,9.418315
2023-01-19T07:37:50.954Z,9.418216
2023-01-19T07:38:50.930Z,9.418292
2023-01-19T07:39:50.945Z,9.418280
2023-01-19T07:40:50.918Z,9.418253
2023-01-19T07:41:50.918Z,9.418303
2023-01-19T07:42:50.910Z,9.418283
2023-01-19T07:43:50.888Z,9.418323
2023-01-19T07:44:50.915Z,9.418377
2023-01-19T07:45:51.000Z,9.418340
2023-01-19T07:46:50.887Z,9.418326
2023-01-19T07:47:50.869Z,9.418334
2023-01-19T07:48:50.874Z,9.418312
2023-01-19T07:49:50.864Z,9.418292
2023-01-19T07:50:50.865Z,9.418258
2023-01-19T07:51:50.837Z,9.418217
2023-01-19T07:52:50.851Z,9.418247
2023-01-19T07:53:50.901Z,9.418293
2023-01-19T07:54:50.844Z,9.418265
2023-01-19T07:55:50.830Z,9.418440
2023-01-19T07:56:50.821Z,9.418435
2023-01-19T07:57:50.807Z,9.418416
2023-01-19T07:58:50.807Z,9.418378
2023-01-19T07:59:50.797Z,9.418324
2023-01-19T08:00:50.840Z,9.418275
2023-01-19T08:01:50.970Z,9.418236
2023-01-19T08:02:50.773Z,9.418271
2023-01-19T08:03:50.816Z,9.418314
2023-01-19T08:04:50.832Z,9.418279
2023-01-19T08:05:50.768Z,9.418327
2023-01-19T08:06:50.758Z,9.418321
2023-01-19T08:07:53.245Z,9.418297
2023-01-19T08:08:50.735Z,9.418372
2023-01-19T08:09:50.729Z,9.418390
2023-01-19T08:10:50.768Z,9.418291
2023-01-19T08:11:50.719Z,9.418300
2023-01-19T08:12:50.733Z,9.418303
2023-01-19T08:13:50.716Z,9.418269
2023-01-19T08:14:50.706Z,9.418326
2023-01-19T08:15:50.803Z,9.418328
2023-01-19T08:16:50.677Z,9.418375
2023-01-19T08:17:50.693Z,9.418407
2023-01-19T08:18:50.677Z,9.418278
2023-01-19T08:19:50.688Z,9.418284
2023-01-19T08:20:50.669Z,9.418265
2023-01-19T08:21:50.656Z,9.418280
2023-01-19T08:22:50.666Z,9.418253
2023-01-19T08:23:50.696Z,9.418307
2023-01-19T08:24:50.658Z,9.418310
2023-01-19T08:25:50.630Z,9.418283
2023-01-19T08:26:50.620Z,9.418299
2023-01-19T08:27:50.617Z,9.418292
2023-01-19T08:28:50.625Z,9.418336
2023-01-19T08:29:50.598Z,9.418303
2023-01-19T08:30:50.703Z,9.418309
2023-01-19T08:31:50.649Z,9.418279
2023-01-19T08:32:50.580Z,9.418332
2023-01-19T08:33:50.595Z,9.418322
2023-01-19T08:34:50.581Z,9.418323
2023-01-19T08:35:50.556Z,9.418318
2023-01-19T08:36:50.562Z,9.418313
2023-01-19T08:37:50.538Z,9.418370
2023-01-19T08:38:51.556Z,9.418365
2023-01-19T08:39:50.528Z,9.418384
2023-01-19T08:40:50.519Z,9.418215
2023-01-19T08:41:50.524Z,9.418285
2023-01-19T08:42:50.532Z,9.418248
2023-01-19T08:43:50.512Z,9.418216
2023-01-19T08:44:58.116Z,9.418233
2023-01-19T08:45:52.500Z,9.418268
2023-01-19T08:46:50.503Z,9.418274
2023-01-19T08:47:50.512Z,9.418179
2023-01-19T08:48:50.651Z,9.418248
2023-01-19T08:49:50.485Z,9.418280
2023-01-19T08:50:50.481Z,9.418314
2023-01-19T08:51:50.474Z,9.418295
2023-01-19T08:52:50.455Z,9.418315
2023-01-19T08:53:50.486Z,9.418234
2023-01-19T08:54:50.458Z,9.418338
2023-01-19T08:55:50.461Z,9.418296
2023-01-19T08:56:50.433Z,9.418335
2023-01-19T08:57:50.426Z,9.418231
2023-01-19T08:59:03.511Z,9.418276
2023-01-19T08:59:52.416Z,9.418275
2023-01-19T09:00:50.475Z,9.418231
2023-01-19T09:01:50.550Z,9.418244
2023-01-19T09:02:50.491Z,9.418250
2023-01-19T09:03:50.381Z,9.418242
2023-01-19T09:04:50.395Z,9.418277
2023-01-19T09:05:50.411Z,9.418110
2023-01-19T09:06:50.360Z,9.418118
2023-01-19T09:07:50.364Z,9.418159
2023-01-19T09:08:51.365Z,9.418185
2023-01-19T09:09:50.348Z,9.418116
2023-01-19T09:10:50.345Z,9.418381
2023-01-19T09:11:50.323Z,9.418362
2023-01-19T09:12:50.333Z,9.418365
2023-01-19T09:13:50.336Z,9.418398
2023-01-19T09:14:50.325Z,9.418406
2023-01-19T09:15:50.338Z,9.418332
2023-01-19T09:16:50.313Z,9.418328
2023-01-19T09:17:50.296Z,9.418383
2023-01-19T09:18:50.283Z,9.418364
2023-01-19T09:19:50.283Z,9.418295
2023-01-19T09:20:50.282Z,9.418271
2023-01-19T09:21:50.288Z,9.418238
2023-01-19T09:22:50.265Z,9.418181
2023-01-19T09:23:50.255Z,9.418142
2023-01-19T09:24:50.239Z,9.417955
2023-01-19T09:25:50.243Z,9.417630
2023-01-19T09:26:50.248Z,9.417666
2023-01-19T09:27:50.265Z,9.417744
2023-01-19T09:28:50.243Z,9.417815
2023-01-19T09:29:50.227Z,9.418160
2023-01-19T09:30:50.343Z,9.418529
2023-01-19T09:31:50.255Z,9.418570
2023-01-19T09:32:50.208Z,9.418403
2023-01-19T09:33:50.208Z,9.418180
2023-01-19T09:34:50.192Z,9.418304
2023-01-19T09:35:50.202Z,9.418246
2023-01-19T09:36:50.183Z,9.418314
2023-01-19T09:37:50.183Z,9.418238
2023-01-19T09:38:50.178Z,9.418121
2023-01-19T09:39:50.276Z,9.418216
2023-01-19T09:40:50.160Z,9.418217
2023-01-19T09:41:50.179Z,9.418354
2023-01-19T09:42:50.152Z,9.418561
2023-01-19T09:43:50.137Z,9.418618
2023-01-19T09:44:50.132Z,9.418617
2023-01-19T09:45:50.163Z,9.418646
2023-01-19T09:46:50.186Z,9.418572
2023-01-19T09:47:50.117Z,9.418678
2023-01-19T09:48:50.294Z,9.418731
2023-01-19T09:49:50.093Z,9.418436
2023-01-19T09:50:50.088Z,9.418434
2023-01-19T09:51:50.087Z,9.418455
2023-01-19T09:52:50.067Z,9.418346
2023-01-19T09:53:50.079Z,9.418139
2023-01-19T09:54:50.084Z,9.418219
2023-01-19T09:55:50.063Z,9.418500
2023-01-19T09:56:52.652Z,9.418483
2023-01-19T09:57:51.042Z,9.418366
2023-01-19T09:58:50.056Z,9.418521
2023-01-19T09:59:50.041Z,9.418321
2023-01-19T10:00:50.142Z,9.418360
2023-01-19T10:01:50.075Z,9.418350
2023-01-19T10:02:50.075Z,9.418296
2023-01-19T10:03:51.021Z,9.418306
2023-01-19T10:04:50.020Z,9.418316
2023-01-19T10:05:50.021Z,9.418204
2023-01-19T10:06:49.990Z,9.418289
2023-01-19T10:07:49.988Z,9.418340
2023-01-19T10:08:49.991Z,9.418609
2023-01-19T10:09:49.984Z,9.418508
2023-01-19T10:10:49.977Z,9.418498
2023-01-19T10:11:53.559Z,9.418512
2023-01-19T10:12:51.015Z,9.418422
2023-01-19T10:13:49.980Z,9.418299
2023-01-19T10:14:49.933Z,9.418329
2023-01-19T10:15:49.948Z,9.418317
2023-01-19T10:16:49.932Z,9.418367
2023-01-19T10:17:49.931Z,9.418393
2023-01-19T10:18:49.923Z,9.418526
2023-01-19T10:19:49.907Z,9.418956
2023-01-19T10:20:49.921Z,9.418502
2023-01-19T10:21:49.905Z,9.418272
2023-01-19T10:22:49.896Z,9.418620
2023-01-19T10:23:49.897Z,9.418496
2023-01-19T10:24:49.891Z,9.418402
2023-01-19T10:25:49.924Z,9.418276
2023-01-19T10:26:49.889Z,9.418295
2023-01-19T10:27:49.881Z,9.418195
2023-01-19T10:28:49.859Z,9.418370
2023-01-19T10:29:49.888Z,9.418416
2023-01-19T10:30:49.848Z,9.418325
2023-01-19T10:31:49.887Z,9.418336
2023-01-19T10:32:49.826Z,9.418658
2023-01-19T10:33:49.821Z,9.418929
2023-01-19T10:34:49.827Z,9.418852
2023-01-19T10:35:49.812Z,9.419031
2023-01-19T10:36:49.881Z,9.418827
2023-01-19T10:37:49.793Z,9.418564
2023-01-19T10:38:49.816Z,9.418542
2023-01-19T10:39:49.816Z,9.418386
2023-01-19T10:40:49.785Z,9.418337
2023-01-19T10:41:49.788Z,9.418305
2023-01-19T10:42:49.884Z,9.418284
2023-01-19T10:43:49.770Z,9.418219
2023-01-19T10:44:49.826Z,9.418300
2023-01-19T10:45:49.775Z,9.418280
2023-01-19T10:46:49.745Z,9.418275
2023-01-19T10:47:49.765Z,9.418335
2023-01-19T10:48:49.745Z,9.418348
2023-01-19T10:49:49.717Z,9.418282
2023-01-19T10:50:49.715Z,9.418339
2023-01-19T10:51:49.770Z,9.418288
2023-01-19T10:52:49.717Z,9.418253
2023-01-19T10:53:49.694Z,9.418213
2023-01-19T10:54:49.742Z,9.418281
2023-01-19T10:55:49.673Z,9.418291
2023-01-19T10:56:50.700Z,9.418279
2023-01-19T10:57:49.672Z,9.418294
2023-01-19T10:58:49.691Z,9.418275
2023-01-19T10:59:49.653Z,9.418208
2023-01-19T11:00:49.731Z,9.418259
2023-01-19T11:01:49.795Z,9.418306
2023-01-19T11:02:49.717Z,9.418377
2023-01-19T11:03:49.713Z,9.418313
2023-01-19T11:04:50.191Z,9.418323
2023-01-19T11:05:50.706Z,9.418318
2023-01-19T11:06:49.625Z,9.418273
2023-01-19T11:07:49.616Z,9.418319
2023-01-19T11:08:49.623Z,9.418264
2023-01-19T11:09:49.648Z,9.418330
2023-01-19T11:10:49.582Z,9.418386
2023-01-19T11:11:49.579Z,9.418258
2023-01-19T11:12:49.579Z,9.418182
2023-01-19T11:13:49.575Z,9.418265
2023-01-19T11:14:49.584Z,9.418232
2023-01-19T11:15:49.571Z,9.418179
2023-01-19T11:16:49.593Z,9.418073
2023-01-19T11:17:49.542Z,9.418108
2023-01-19T11:18:49.544Z,9.418235
2023-01-19T11:19:49.541Z,9.418288
2023-01-19T11:20:49.533Z,9.418313
2023-01-19T11:21:49.520Z,9.418366
2023-01-19T11:22:49.507Z,9.418251
2023-01-19T11:23:49.519Z,9.418407
2023-01-19T11:24:49.507Z,9.418279
2023-01-19T11:25:49.520Z,9.418274
2023-01-19T11:26:49.511Z,9.418189
2023-01-19T11:27:49.490Z,9.418175
2023-01-19T11:28:49.481Z,9.418221
2023-01-19T11:29:49.466Z,9.418237
2023-01-19T11:30:49.521Z,9.418178
2023-01-19T11:31:49.610Z,9.418286
2023-01-19T11:32:49.472Z,9.418255
2023-01-19T11:33:50.791Z,9.418277
2023-01-19T11:34:50.452Z,9.418387
2023-01-19T11:35:49.444Z,9.418271
2023-01-19T11:36:49.434Z,9.418261
2023-01-19T11:37:49.429Z,9.418445
2023-01-19T11:38:49.404Z,9.418291
2023-01-19T11:39:49.417Z,9.418261
2023-01-19T11:40:49.412Z,9.418176
2023-01-19T11:41:49.391Z,9.418388
2023-01-19T11:42:49.387Z,9.418169
2023-01-19T11:43:49.687Z,9.418123
2023-01-19T11:44:49.386Z,9.418350